sensor_id;sensor_type;location;lat;lon;timestamp;pressure;altitude;pressure_sealevel;temperature;humidity
67457;BME280;54319;52.038;4.640;2023-10-08T00:02:10;102403.19;;;17.76;100.00
67457;BME280;54319;52.038;4.640;2023-10-08T00:04:39;102415.13;;;17.70;100.00
67457;BME280;54319;52.038;4.640;2023-10-08T00:07:06;102421.91;;;17.74;100.00
67457;BME280;54319;52.038;4.640;2023-10-08T00:09:33;102418.69;;;17.77;100.00
67457;BME280;54319;52.038;4.640;2023-10-08T00:12:02;102425.06;;;17.78;100.00
67457;BME280;54319;52.038;4.640;2023-10-08T00:14:29;102416.50;;;17.86;100.00
67457;BME280;54319;52.038;4.640;2023-10-08T00:16:57;102405.78;;;17.71;100.00
67457;BME280;54319;52.038;4.640;2023-10-08T00:19:25;102415.94;;;17.77;100.00
67457;BME280;54319;52.038;4.640;2023-10-08T00:21:58;102415.94;;;17.77;100.00
67457;BME280;54319;52.038;4.640;2023-10-08T00:24:30;102407.84;;;17.83;100.00
67457;BME280;54319;52.038;4.640;2023-10-08T00:26:58;102402.34;;;17.83;100.00
67457;BME280;54319;52.038;4.640;2023-10-08T00:29:26;102396.81;;;17.83;100.00
67457;BME280;54319;52.038;4.640;2023-10-08T00:31:53;102404.66;;;17.86;100.00
67457;BME280;54319;52.038;4.640;2023-10-08T00:34:24;102399.50;;;17.89;100.00
67457;BME280;54319;52.038;4.640;2023-10-08T00:36:52;102385.78;;;17.83;100.00
67457;BME280;54319;52.038;4.640;2023-10-08T00:39:20;102387.47;;;17.84;100.00
67457;BME280;54319;52.038;4.640;2023-10-08T00:41:50;102381.50;;;17.87;100.00
67457;BME280;54319;52.038;4.640;2023-10-08T00:44:20;102381.69;;;17.85;100.00
67457;BME280;54319;52.038;4.640;2023-10-08T00:46:55;102375.53;;;17.90;100.00
67457;BME280;54319;52.038;4.640;2023-10-08T00:49:28;102331.59;;;17.56;100.00
67457;BME280;54319;52.038;4.640;2023-10-08T00:52:14;102361.41;;;17.73;100.00
67457;BME280;54319;52.038;4.640;2023-10-08T00:54:56;102367.09;;;17.78;100.00
67457;BME280;54319;52.038;4.640;2023-10-08T00:57:34;102382.16;;;17.82;100.00
67457;BME280;54319;52.038;4.640;2023-10-08T01:00:03;102385.31;;;17.86;100.00
67457;BME280;54319;52.038;4.640;2023-10-08T01:02:37;102386.59;;;17.83;100.00
67457;BME280;54319;52.038;4.640;2023-10-08T01:05:13;102392.16;;;17.76;100.00
67457;BME280;54319;52.038;4.640;2023-10-08T01:07:45;102394.91;;;17.76;100.00
67457;BME280;54319;52.038;4.640;2023-10-08T01:10:14;102392.44;;;17.68;100.00
67457;BME280;54319;52.038;4.640;2023-10-08T01:12:45;102390.13;;;17.65;100.00
67457;BME280;54319;52.038;4.640;2023-10-08T01:15:20;102388.88;;;17.61;100.00
67457;BME280;54319;52.038;4.640;2023-10-08T01:17:53;102393.78;;;17.59;100.00
67457;BME280;54319;52.038;4.640;2023-10-08T01:20:27;102386.75;;;17.63;100.00
67457;BME280;54319;52.038;4.640;2023-10-08T01:23:04;102387.84;;;17.55;100.00
67457;BME280;54319;52.038;4.640;2023-10-08T01:25:35;102389.41;;;17.44;100.00
67457;BME280;54319;52.038;4.640;2023-10-08T01:28:03;102392.78;;;17.46;100.00
67457;BME280;54319;52.038;4.640;2023-10-08T01:30:34;102401.06;;;17.46;100.00
67457;BME280;54319;52.038;4.640;2023-10-08T01:33:07;102400.44;;;17.44;100.00
67457;BME280;54319;52.038;4.640;2023-10-08T01:35:38;102402.53;;;17.49;100.00
67457;BME280;54319;52.038;4.640;2023-10-08T01:38:07;102401.91;;;17.47;100.00
67457;BME280;54319;52.038;4.640;2023-10-08T01:40:41;102393.44;;;17.42;100.00
67457;BME280;54319;52.038;4.640;2023-10-08T01:43:08;102403.63;;;17.41;100.00
67457;BME280;54319;52.038;4.640;2023-10-08T01:45:36;102402.78;;;17.41;100.00
67457;BME280;54319;52.038;4.640;2023-10-08T01:48:06;102414.66;;;17.41;100.00
67457;BME280;54319;52.038;4.640;2023-10-08T01:50:35;102419.97;;;17.36;100.00
67457;BME280;54319;52.038;4.640;2023-10-08T01:53:01;102426.38;;;17.36;100.00
67457;BME280;54319;52.038;4.640;2023-10-08T01:55:32;102422.16;;;17.27;100.00
67457;BME280;54319;52.038;4.640;2023-10-08T01:58:11;102439.34;;;17.29;100.00
67457;BME280;54319;52.038;4.640;2023-10-08T02:00:42;102406.78;;;17.06;100.00
67457;BME280;54319;52.038;4.640;2023-10-08T02:03:11;102449.50;;;17.29;100.00
67457;BME280;54319;52.038;4.640;2023-10-08T02:05:39;102439.16;;;17.24;100.00
67457;BME280;54319;52.038;4.640;2023-10-08T02:08:08;102456.53;;;17.25;100.00
67457;BME280;54319;52.038;4.640;2023-10-08T02:10:36;102443.19;;;17.21;100.00
67457;BME280;54319;52.038;4.640;2023-10-08T02:13:03;102438.09;;;17.18;100.00
67457;BME280;54319;52.038;4.640;2023-10-08T02:15:31;102437.47;;;17.16;100.00
67457;BME280;54319;52.038;4.640;2023-10-08T02:17:57;102422.44;;;17.12;100.00
67457;BME280;54319;52.038;4.640;2023-10-08T02:20:24;102425.84;;;17.07;100.00
67457;BME280;54319;52.038;4.640;2023-10-08T02:22:53;102440.88;;;17.12;100.00
67457;BME280;54319;52.038;4.640;2023-10-08T02:25:20;102417.13;;;17.04;100.00
67457;BME280;54319;52.038;4.640;2023-10-08T02:27:49;102403.78;;;17.01;100.00
67457;BME280;54319;52.038;4.640;2023-10-08T02:30:16;102417.38;;;17.02;100.00
67457;BME280;54319;52.038;4.640;2023-10-08T02:32:43;102415.91;;;16.93;100.00
67457;BME280;54319;52.038;4.640;2023-10-08T02:35:09;102426.91;;;16.93;100.00
67457;BME280;54319;52.038;4.640;2023-10-08T02:37:38;102428.63;;;16.94;100.00
67457;BME280;54319;52.038;4.640;2023-10-08T02:40:07;102435.41;;;16.91;100.00
67457;BME280;54319;52.038;4.640;2023-10-08T02:42:42;102436.69;;;16.89;100.00
67457;BME280;54319;52.038;4.640;2023-10-08T02:45:11;102446.41;;;16.85;100.00
67457;BME280;54319;52.038;4.640;2023-10-08T02:47:40;102429.88;;;16.85;100.00
67457;BME280;54319;52.038;4.640;2023-10-08T02:50:08;102435.00;;;16.81;100.00
67457;BME280;54319;52.038;4.640;2023-10-08T02:52:42;102423.56;;;16.77;100.00
67457;BME280;54319;52.038;4.640;2023-10-08T02:55:10;102426.53;;;16.76;100.00
67457;BME280;54319;52.038;4.640;2023-10-08T02:57:48;102425.28;;;16.72;100.00
67457;BME280;54319;52.038;4.640;2023-10-08T03:00:17;102429.53;;;16.68;100.00
67457;BME280;54319;52.038;4.640;2023-10-08T03:02:45;102444.34;;;16.67;100.00
67457;BME280;54319;52.038;4.640;2023-10-08T03:05:12;102451.97;;;16.64;100.00
67457;BME280;54319;52.038;4.640;2023-10-08T03:07:42;102439.25;;;16.63;100.00
67457;BME280;54319;52.038;4.640;2023-10-08T03:10:09;102435.66;;;16.63;100.00
67457;BME280;54319;52.038;4.640;2023-10-08T03:12:44;102426.97;;;16.59;100.00
67457;BME280;54319;52.038;4.640;2023-10-08T03:15:12;102429.97;;;16.58;100.00
67457;BME280;54319;52.038;4.640;2023-10-08T03:17:41;102431.44;;;16.54;100.00
67457;BME280;54319;52.038;4.640;2023-10-08T03:20:16;102432.06;;;16.49;100.00
67457;BME280;54319;52.038;4.640;2023-10-08T03:23:03;102433.34;;;16.46;100.00
67457;BME280;54319;52.038;4.640;2023-10-08T03:25:37;102440.78;;;16.46;100.00
67457;BME280;54319;52.038;4.640;2023-10-08T03:28:07;102429.56;;;16.41;100.00
67457;BME280;54319;52.038;4.640;2023-10-08T03:30:34;102435.47;;;16.38;100.00
67457;BME280;54319;52.038;4.640;2023-10-08T03:33:14;102438.88;;;16.40;100.00
67457;BME280;54319;52.038;4.640;2023-10-08T03:35:47;102435.47;;;16.24;100.00
67457;BME280;54319;52.038;4.640;2023-10-08T03:38:14;102463.22;;;16.36;100.00
67457;BME280;54319;52.038;4.640;2023-10-08T03:40:54;102480.59;;;16.37;100.00
67457;BME280;54319;52.038;4.640;2023-10-08T03:43:29;102470.03;;;16.33;100.00
67457;BME280;54319;52.038;4.640;2023-10-08T03:46:08;102478.28;;;16.33;100.00
67457;BME280;54319;52.038;4.640;2023-10-08T03:48:42;102466.81;;;16.30;100.00
67457;BME280;54319;52.038;4.640;2023-10-08T03:51:10;102474.91;;;16.31;100.00
67457;BME280;54319;52.038;4.640;2023-10-08T03:53:38;102480.78;;;16.28;100.00
67457;BME280;54319;52.038;4.640;2023-10-08T03:56:23;102483.53;;;16.28;100.00
67457;BME280;54319;52.038;4.640;2023-10-08T03:58:50;102481.22;;;16.25;100.00
67457;BME280;54319;52.038;4.640;2023-10-08T04:01:19;102483.34;;;16.23;100.00
67457;BME280;54319;52.038;4.640;2023-10-08T04:03:48;102497.53;;;16.20;100.00
67457;BME280;54319;52.038;4.640;2023-10-08T04:06:24;102506.00;;;16.18;100.00
67457;BME280;54319;52.038;4.640;2023-10-08T04:08:56;102512.78;;;16.16;100.00
67457;BME280;54319;52.038;4.640;2023-10-08T04:11:37;102523.16;;;16.14;100.00
67457;BME280;54319;52.038;4.640;2023-10-08T04:14:17;102512.34;;;16.12;100.00
67457;BME280;54319;52.038;4.640;2023-10-08T04:16:44;102502.59;;;16.10;100.00
67457;BME280;54319;52.038;4.640;2023-10-08T04:19:12;102503.84;;;16.07;100.00
67457;BME280;54319;52.038;4.640;2023-10-08T04:21:43;102518.91;;;16.04;100.00
67457;BME280;54319;52.038;4.640;2023-10-08T04:24:11;102507.63;;;15.93;100.00
67457;BME280;54319;52.038;4.640;2023-10-08T04:26:40;102522.47;;;15.98;100.00
67457;BME280;54319;52.038;4.640;2023-10-08T04:29:08;102533.91;;;15.95;100.00
67457;BME280;54319;52.038;4.640;2023-10-08T04:31:34;102517.16;;;15.90;100.00
67457;BME280;54319;52.038;4.640;2023-10-08T04:34:09;102520.94;;;15.89;100.00
67457;BME280;54319;52.038;4.640;2023-10-08T04:36:42;102506.53;;;15.87;100.00
67457;BME280;54319;52.038;4.640;2023-10-08T04:39:11;102481.72;;;15.73;100.00
67457;BME280;54319;52.038;4.640;2023-10-08T04:41:41;102515.41;;;15.82;100.00
67457;BME280;54319;52.038;4.640;2023-10-08T04:44:09;102523.88;;;15.81;100.00
67457;BME280;54319;52.038;4.640;2023-10-08T04:46:41;102521.53;;;15.77;100.00
67457;BME280;54319;52.038;4.640;2023-10-08T04:49:17;102497.56;;;15.65;100.00
67457;BME280;54319;52.038;4.640;2023-10-08T04:51:55;102514.75;;;15.73;100.00
67457;BME280;54319;52.038;4.640;2023-10-08T04:54:25;102513.91;;;15.73;100.00
67457;BME280;54319;52.038;4.640;2023-10-08T04:56:56;102520.44;;;15.72;100.00
67457;BME280;54319;52.038;4.640;2023-10-08T04:59:24;102523.19;;;15.72;100.00
67457;BME280;54319;52.038;4.640;2023-10-08T05:01:58;102506.94;;;15.77;100.00
67457;BME280;54319;52.038;4.640;2023-10-08T05:04:46;102471.72;;;15.52;100.00
67457;BME280;54319;52.038;4.640;2023-10-08T05:07:23;102533.81;;;15.75;100.00
67457;BME280;54319;52.038;4.640;2023-10-08T05:10:04;102539.09;;;15.76;100.00
67457;BME280;54319;52.038;4.640;2023-10-08T05:12:57;102521.94;;;15.74;100.00
67457;BME280;54319;52.038;4.640;2023-10-08T05:15:41;102528.28;;;15.68;100.00
67457;BME280;54319;52.038;4.640;2023-10-08T05:18:07;102515.31;;;15.55;100.00
67457;BME280;54319;52.038;4.640;2023-10-08T05:20:48;102532.72;;;15.69;100.00
67457;BME280;54319;52.038;4.640;2023-10-08T05:23:30;102536.53;;;15.68;100.00
67457;BME280;54319;52.038;4.640;2023-10-08T05:26:14;102532.69;;;15.62;100.00
67457;BME280;54319;52.038;4.640;2023-10-08T05:28:56;102545.38;;;15.57;100.00
67457;BME280;54319;52.038;4.640;2023-10-08T05:31:27;102543.88;;;15.54;100.00
67457;BME280;54319;52.038;4.640;2023-10-08T05:34:12;102538.97;;;15.49;100.00
67457;BME280;54319;52.038;4.640;2023-10-08T05:36:43;102539.19;;;15.48;100.00
67457;BME280;54319;52.038;4.640;2023-10-08T05:39:37;102521.59;;;15.42;100.00
67457;BME280;54319;52.038;4.640;2023-10-08T05:42:08;102520.94;;;15.40;100.00
67457;BME280;54319;52.038;4.640;2023-10-08T05:44:44;102520.31;;;15.38;100.00
67457;BME280;54319;52.038;4.640;2023-10-08T05:47:12;102520.72;;;15.35;100.00
67457;BME280;54319;52.038;4.640;2023-10-08T05:50:04;102532.56;;;15.36;100.00
67457;BME280;54319;52.038;4.640;2023-10-08T05:52:49;102541.41;;;15.31;100.00
67457;BME280;54319;52.038;4.640;2023-10-08T05:55:29;102545.66;;;15.33;100.00
67457;BME280;54319;52.038;4.640;2023-10-08T05:58:02;102535.50;;;15.34;100.00
67457;BME280;54319;52.038;4.640;2023-10-08T06:00:39;102532.94;;;15.26;100.00
67457;BME280;54319;52.038;4.640;2023-10-08T06:03:23;102551.97;;;15.27;100.00
67457;BME280;54319;52.038;4.640;2023-10-08T06:06:02;102557.03;;;15.24;100.00
67457;BME280;54319;52.038;4.640;2023-10-08T06:08:48;102547.22;;;15.14;100.00
67457;BME280;54319;52.038;4.640;2023-10-08T06:11:48;102572.88;;;15.22;100.00
67457;BME280;54319;52.038;4.640;2023-10-08T06:14:33;102572.63;;;15.16;100.00
67457;BME280;54319;52.038;4.640;2023-10-08T06:17:18;102572.38;;;15.11;100.00
67457;BME280;54319;52.038;4.640;2023-10-08T06:19:59;102576.44;;;15.15;100.00
67457;BME280;54319;52.038;4.640;2023-10-08T06:22:35;102578.13;;;15.16;100.00
67457;BME280;54319;52.038;4.640;2023-10-08T06:25:01;102591.00;;;15.16;100.00
67457;BME280;54319;52.038;4.640;2023-10-08T06:27:44;102597.38;;;15.16;100.00
67457;BME280;54319;52.038;4.640;2023-10-08T06:30:17;102602.00;;;15.16;100.00
67457;BME280;54319;52.038;4.640;2023-10-08T06:32:44;102601.81;;;15.17;100.00
67457;BME280;54319;52.038;4.640;2023-10-08T06:35:17;102603.53;;;15.18;100.00
67457;BME280;54319;52.038;4.640;2023-10-08T06:37:50;102601.81;;;15.17;100.00
67457;BME280;54319;52.038;4.640;2023-10-08T06:40:20;102595.69;;;15.22;100.00
67457;BME280;54319;52.038;4.640;2023-10-08T06:43:05;102598.03;;;15.18;100.00
67457;BME280;54319;52.038;4.640;2023-10-08T06:45:40;102586.50;;;15.08;100.00
67457;BME280;54319;52.038;4.640;2023-10-08T06:48:07;102602.19;;;15.14;100.00
67457;BME280;54319;52.038;4.640;2023-10-08T06:50:35;102617.84;;;15.14;100.00
67457;BME280;54319;52.038;4.640;2023-10-08T06:53:03;102622.00;;;15.03;100.00
67457;BME280;54319;52.038;4.640;2023-10-08T06:55:33;102632.16;;;15.02;100.00
67457;BME280;54319;52.038;4.640;2023-10-08T06:58:01;102626.00;;;15.00;100.00
67457;BME280;54319;52.038;4.640;2023-10-08T07:00:33;102612.19;;;14.94;100.00
67457;BME280;54319;52.038;4.640;2023-10-08T07:03:05;102623.25;;;15.00;100.00
67457;BME280;54319;52.038;4.640;2023-10-08T07:05:33;102621.47;;;14.93;100.00
67457;BME280;54319;52.038;4.640;2023-10-08T07:08:02;102643.31;;;15.01;100.00
67457;BME280;54319;52.038;4.640;2023-10-08T07:10:32;102635.94;;;15.01;100.00
67457;BME280;54319;52.038;4.640;2023-10-08T07:12:59;102633.78;;;14.97;100.00
67457;BME280;54319;52.038;4.640;2023-10-08T07:15:28;102636.34;;;14.98;100.00
67457;BME280;54319;52.038;4.640;2023-10-08T07:17:56;102642.16;;;14.88;100.00
67457;BME280;54319;52.038;4.640;2023-10-08T07:20:34;102640.47;;;14.87;100.00
67457;BME280;54319;52.038;4.640;2023-10-08T07:23:04;102659.88;;;14.86;100.00
67457;BME280;54319;52.038;4.640;2023-10-08T07:25:35;102657.75;;;14.81;100.00
67457;BME280;54319;52.038;4.640;2023-10-08T07:28:04;102652.03;;;14.83;100.00
67457;BME280;54319;52.038;4.640;2023-10-08T07:30:37;102661.16;;;14.83;100.00
67457;BME280;54319;52.038;4.640;2023-10-08T07:33:10;102659.63;;;14.81;100.00
67457;BME280;54319;52.038;4.640;2023-10-08T07:35:43;102676.59;;;14.84;100.00
67457;BME280;54319;52.038;4.640;2023-10-08T07:38:17;102673.84;;;14.84;100.00
67457;BME280;54319;52.038;4.640;2023-10-08T07:40:43;102660.75;;;14.86;100.00
67457;BME280;54319;52.038;4.640;2023-10-08T07:43:10;102665.59;;;14.84;100.00
67457;BME280;54319;52.038;4.640;2023-10-08T07:45:41;102672.56;;;14.87;100.00
67457;BME280;54319;52.038;4.640;2023-10-08T07:48:15;102674.75;;;14.92;100.00
67457;BME280;54319;52.038;4.640;2023-10-08T07:50:43;102672.44;;;14.95;100.00
67457;BME280;54319;52.038;4.640;2023-10-08T07:53:13;102667.63;;;14.97;100.00
67457;BME280;54319;52.038;4.640;2023-10-08T07:55:45;102676.78;;;15.04;100.00
67457;BME280;54319;52.038;4.640;2023-10-08T07:58:13;102677.88;;;15.10;100.00
67457;BME280;54319;52.038;4.640;2023-10-08T08:00:41;102672.09;;;15.05;100.00
67457;BME280;54319;52.038;4.640;2023-10-08T08:03:18;102678.78;;;15.17;100.00
67457;BME280;54319;52.038;4.640;2023-10-08T08:05:45;102676.06;;;15.24;100.00
67457;BME280;54319;52.038;4.640;2023-10-08T08:08:13;102677.19;;;15.30;100.00
67457;BME280;54319;52.038;4.640;2023-10-08T08:10:43;102696.28;;;15.38;100.00
67457;BME280;54319;52.038;4.640;2023-10-08T08:13:11;102694.84;;;15.42;100.00
67457;BME280;54319;52.038;4.640;2023-10-08T08:15:39;102702.28;;;15.48;100.00
67457;BME280;54319;52.038;4.640;2023-10-08T08:18:10;102692.25;;;15.34;100.00
67457;BME280;54319;52.038;4.640;2023-10-08T08:20:49;102706.88;;;15.41;100.00
67457;BME280;54319;52.038;4.640;2023-10-08T08:23:15;102701.38;;;15.41;100.00
67457;BME280;54319;52.038;4.640;2023-10-08T08:25:42;102722.09;;;15.37;100.00
67457;BME280;54319;52.038;4.640;2023-10-08T08:28:21;102718.13;;;15.46;100.00
67457;BME280;54319;52.038;4.640;2023-10-08T08:30:50;102712.44;;;15.48;100.00
67457;BME280;54319;52.038;4.640;2023-10-08T08:33:18;102721.19;;;15.58;100.00
67457;BME280;54319;52.038;4.640;2023-10-08T08:35:57;102725.47;;;15.61;100.00
67457;BME280;54319;52.038;4.640;2023-10-08T08:38:24;102729.69;;;15.63;100.00
67457;BME280;54319;52.038;4.640;2023-10-08T08:40:51;102727.41;;;15.67;100.00
67457;BME280;54319;52.038;4.640;2023-10-08T08:43:18;102727.19;;;15.69;100.00
67457;BME280;54319;52.038;4.640;2023-10-08T08:45:45;102730.81;;;15.69;100.00
67457;BME280;54319;52.038;4.640;2023-10-08T08:48:17;102737.16;;;15.70;100.00
67457;BME280;54319;52.038;4.640;2023-10-08T08:50:46;102733.34;;;15.71;100.00
67457;BME280;54319;52.038;4.640;2023-10-08T08:53:14;102727.19;;;15.69;100.00
67457;BME280;54319;52.038;4.640;2023-10-08T08:55:41;102724.03;;;15.72;100.00
67457;BME280;54319;52.038;4.640;2023-10-08T08:58:09;102728.69;;;15.71;100.00
67457;BME280;54319;52.038;4.640;2023-10-08T09:00:37;102724.09;;;15.78;100.00
67457;BME280;54319;52.038;4.640;2023-10-08T09:03:06;102730.06;;;15.82;100.00
67457;BME280;54319;52.038;4.640;2023-10-08T09:05:33;102724.34;;;15.84;100.00
67457;BME280;54319;52.038;4.640;2023-10-08T09:08:02;102721.34;;;15.78;100.00
67457;BME280;54319;52.038;4.640;2023-10-08T09:10:31;102719.09;;;15.89;100.00
67457;BME280;54319;52.038;4.640;2023-10-08T09:13:03;102705.47;;;15.81;100.00
67457;BME280;54319;52.038;4.640;2023-10-08T09:15:30;102722.53;;;15.91;100.00
67457;BME280;54319;52.038;4.640;2023-10-08T09:17:58;102724.88;;;15.94;100.00
67457;BME280;54319;52.038;4.640;2023-10-08T09:20:26;102717.66;;;15.93;100.00
67457;BME280;54319;52.038;4.640;2023-10-08T09:23:05;102718.75;;;15.99;100.00
67457;BME280;54319;52.038;4.640;2023-10-08T09:25:38;102707.31;;;15.95;100.00
67457;BME280;54319;52.038;4.640;2023-10-08T09:28:05;102703.56;;;16.10;100.00
67457;BME280;54319;52.038;4.640;2023-10-08T09:30:33;102705.72;;;16.21;100.00
67457;BME280;54319;52.038;4.640;2023-10-08T09:33:04;102713.38;;;16.26;100.00
67457;BME280;54319;52.038;4.640;2023-10-08T09:35:31;102720.00;;;16.31;100.00
67457;BME280;54319;52.038;4.640;2023-10-08T09:37:59;102731.22;;;16.37;100.00
67457;BME280;54319;52.038;4.640;2023-10-08T09:40:25;102725.50;;;16.38;100.00
67457;BME280;54319;52.038;4.640;2023-10-08T09:42:54;102742.25;;;16.43;100.00
67457;BME280;54319;52.038;4.640;2023-10-08T09:45:21;102733.81;;;16.45;100.00
67457;BME280;54319;52.038;4.640;2023-10-08T09:47:49;102720.44;;;16.42;100.00
67457;BME280;54319;52.038;4.640;2023-10-08T09:50:21;102714.28;;;16.40;100.00
67457;BME280;54319;52.038;4.640;2023-10-08T09:52:58;102698.34;;;16.28;100.00
67457;BME280;54319;52.038;4.640;2023-10-08T09:55:27;102714.94;;;16.42;100.00
67457;BME280;54319;52.038;4.640;2023-10-08T09:57:56;102716.00;;;16.41;100.00
67457;BME280;54319;52.038;4.640;2023-10-08T10:00:25;102723.25;;;16.48;100.00
67457;BME280;54319;52.038;4.640;2023-10-08T10:02:58;102724.47;;;16.46;100.00
67457;BME280;54319;52.038;4.640;2023-10-08T10:05:29;102720.63;;;16.40;100.00
67457;BME280;54319;52.038;4.640;2023-10-08T10:07:57;102712.59;;;16.45;100.00
67457;BME280;54319;52.038;4.640;2023-10-08T10:10:27;102716.63;;;16.43;100.00
67457;BME280;54319;52.038;4.640;2023-10-08T10:13:00;102728.28;;;16.45;100.00
67457;BME280;54319;52.038;4.640;2023-10-08T10:15:28;102732.16;;;16.51;100.00
67457;BME280;54319;52.038;4.640;2023-10-08T10:18:08;102713.50;;;16.59;100.00
67457;BME280;54319;52.038;4.640;2023-10-08T10:20:39;102730.06;;;16.66;100.00
67457;BME280;54319;52.038;4.640;2023-10-08T10:23:36;102737.72;;;16.71;100.00
67457;BME280;54319;52.038;4.640;2023-10-08T10:26:06;102747.88;;;16.70;100.00
67457;BME280;54319;52.038;4.640;2023-10-08T10:29:20;102744.91;;;16.65;100.00
67457;BME280;54319;52.038;4.640;2023-10-08T10:31:48;102739.78;;;16.55;100.00
67457;BME280;54319;52.038;4.640;2023-10-08T10:34:19;102753.91;;;16.45;100.00
67457;BME280;54319;52.038;4.640;2023-10-08T10:36:49;102751.16;;;16.39;100.00
67457;BME280;54319;52.038;4.640;2023-10-08T10:39:24;102751.53;;;16.29;100.00
67457;BME280;54319;52.038;4.640;2023-10-08T10:41:56;102749.38;;;16.24;100.00
67457;BME280;54319;52.038;4.640;2023-10-08T10:44:27;102744.50;;;16.26;100.00
67457;BME280;54319;52.038;4.640;2023-10-08T10:46:56;102748.59;;;16.30;100.00
67457;BME280;54319;52.038;4.640;2023-10-08T10:49:41;102739.69;;;16.35;100.00
67457;BME280;54319;52.038;4.640;2023-10-08T10:52:20;102740.97;;;16.39;100.00
67457;BME280;54319;52.038;4.640;2023-10-08T10:54:59;102730.81;;;16.46;100.00
67457;BME280;54319;52.038;4.640;2023-10-08T10:57:44;102727.06;;;16.54;100.00
67457;BME280;54319;52.038;4.640;2023-10-08T11:00:21;102731.72;;;16.54;100.00
67457;BME280;54319;52.038;4.640;2023-10-08T11:03:03;102727.91;;;16.61;100.00
67457;BME280;54319;52.038;4.640;2023-10-08T11:05:42;102730.06;;;16.66;100.00
67457;BME280;54319;52.038;4.640;2023-10-08T11:08:13;102727.50;;;16.64;100.00
67457;BME280;54319;52.038;4.640;2023-10-08T11:10:44;102726.25;;;16.67;100.00
67457;BME280;54319;52.038;4.640;2023-10-08T11:13:16;102707.41;;;16.71;100.00
67457;BME280;54319;52.038;4.640;2023-10-08T11:15:46;102719.31;;;16.91;100.00
67457;BME280;54319;52.038;4.640;2023-10-08T11:18:16;102718.13;;;17.14;100.00
67457;BME280;54319;52.038;4.640;2023-10-08T11:20:44;102717.50;;;17.32;100.00
67457;BME280;54319;52.038;4.640;2023-10-08T11:23:11;102714.94;;;17.44;100.00
67457;BME280;54319;52.038;4.640;2023-10-08T11:25:54;102721.06;;;17.60;100.00
67457;BME280;54319;52.038;4.640;2023-10-08T11:28:21;102714.91;;;17.71;100.00
67457;BME280;54319;52.038;4.640;2023-10-08T11:30:54;102714.50;;;17.61;100.00
67457;BME280;54319;52.038;4.640;2023-10-08T11:33:22;102723.38;;;17.76;100.00
67457;BME280;54319;52.038;4.640;2023-10-08T11:35:57;102714.69;;;17.73;100.00
67457;BME280;54319;52.038;4.640;2023-10-08T11:38:25;102710.88;;;17.81;100.00
67457;BME280;54319;52.038;4.640;2023-10-08T11:40:52;102709.13;;;17.93;100.00
67457;BME280;54319;52.038;4.640;2023-10-08T11:43:22;102709.97;;;18.07;100.00
67457;BME280;54319;52.038;4.640;2023-10-08T11:45:48;102712.31;;;18.03;100.00
67457;BME280;54319;52.038;4.640;2023-10-08T11:48:17;102710.63;;;18.02;100.00
67457;BME280;54319;52.038;4.640;2023-10-08T11:50:51;102697.25;;;18.06;100.00
67457;BME280;54319;52.038;4.640;2023-10-08T11:53:18;102700.59;;;18.15;100.00
67457;BME280;54319;52.038;4.640;2023-10-08T11:55:45;102708.84;;;18.28;100.00
67457;BME280;54319;52.038;4.640;2023-10-08T11:58:13;102703.53;;;18.27;100.00
67457;BME280;54319;52.038;4.640;2023-10-08T12:00:43;102700.38;;;18.23;100.00
67457;BME280;54319;52.038;4.640;2023-10-08T12:03:10;102696.97;;;18.21;100.00
67457;BME280;54319;52.038;4.640;2023-10-08T12:05:57;102695.84;;;18.29;100.00
67457;BME280;54319;52.038;4.640;2023-10-08T12:08:25;102681.66;;;18.25;100.00
67457;BME280;54319;52.038;4.640;2023-10-08T12:10:53;102672.66;;;18.36;100.00
67457;BME280;54319;52.038;4.640;2023-10-08T12:13:20;102663.28;;;18.44;100.00
67457;BME280;54319;52.038;4.640;2023-10-08T12:15:51;102670.28;;;18.47;100.00
67457;BME280;54319;52.038;4.640;2023-10-08T12:18:17;102663.94;;;18.40;100.00
67457;BME280;54319;52.038;4.640;2023-10-08T12:20:50;102658.84;;;18.36;100.00
67457;BME280;54319;52.038;4.640;2023-10-08T12:23:19;102658.41;;;18.40;100.00
67457;BME280;54319;52.038;4.640;2023-10-08T12:25:50;102648.59;;;18.44;100.00
67457;BME280;54319;52.038;4.640;2023-10-08T12:28:18;102643.22;;;18.56;100.00
67457;BME280;54319;52.038;4.640;2023-10-08T12:30:45;102638.91;;;18.66;99.37
67457;BME280;54319;52.038;4.640;2023-10-08T12:33:12;102649.53;;;18.70;99.12
67457;BME280;54319;52.038;4.640;2023-10-08T12:35:41;102644.88;;;18.63;99.47
67457;BME280;54319;52.038;4.640;2023-10-08T12:38:08;102642.31;;;18.69;98.50
67457;BME280;54319;52.038;4.640;2023-10-08T12:40:36;102647.28;;;18.53;99.50
67457;BME280;54319;52.038;4.640;2023-10-08T12:43:18;102647.09;;;18.48;99.73
67457;BME280;54319;52.038;4.640;2023-10-08T12:45:46;102631.06;;;18.25;100.00
67457;BME280;54319;52.038;4.640;2023-10-08T12:48:18;102630.69;;;18.21;100.00
67457;BME280;54319;52.038;4.640;2023-10-08T12:50:45;102625.97;;;18.28;100.00
67457;BME280;54319;52.038;4.640;2023-10-08T12:53:19;102600.53;;;18.13;100.00
67457;BME280;54319;52.038;4.640;2023-10-08T12:55:50;102617.06;;;18.19;100.00
67457;BME280;54319;52.038;4.640;2023-10-08T12:58:21;102608.59;;;18.21;100.00
67457;BME280;54319;52.038;4.640;2023-10-08T13:00:52;102607.97;;;18.19;100.00
67457;BME280;54319;52.038;4.640;2023-10-08T13:03:23;102606.25;;;18.18;100.00
67457;BME280;54319;52.038;4.640;2023-10-08T13:05:50;102604.16;;;18.13;100.00